createdAt,value
2017-07-07T00:00:05.536Z,0.00
2017-07-07T00:00:54.677Z,0.00
2017-07-07T00:01:55.358Z,0.00
2017-07-07T00:02:48.692Z,0.00
2017-07-07T00:03:42.724Z,0.00
2017-07-07T00:04:37.877Z,0.00
2017-07-07T00:05:37.839Z,0.00
2017-07-07T00:06:38.041Z,0.00
2017-07-07T00:07:32.357Z,0.00
2017-07-07T00:08:32.071Z,0.00
2017-07-07T00:09:27.073Z,0.00
2017-07-07T00:10:22.023Z,0.00
2017-07-07T00:11:23.089Z,0.00
2017-07-07T00:12:23.561Z,0.00
2017-07-07T00:13:23.180Z,0.00
2017-07-07T00:14:18.292Z,0.00
2017-07-07T00:15:12.129Z,0.00
2017-07-07T00:16:12.628Z,0.00
2017-07-07T00:17:07.624Z,0.00
2017-07-07T00:18:07.450Z,0.00
2017-07-07T00:19:01.398Z,0.00
2017-07-07T00:20:02.489Z,0.00
2017-07-07T00:21:08.986Z,0.00
2017-07-07T00:22:02.490Z,0.00
2017-07-07T00:23:02.597Z,0.00
2017-07-07T00:23:56.631Z,0.00
2017-07-07T00:24:51.841Z,0.00
2017-07-07T00:25:46.879Z,0.00
2017-07-07T00:26:41.889Z,0.00
2017-07-07T00:27:47.743Z,0.00
2017-07-07T00:28:41.789Z,0.00
2017-07-07T00:29:41.812Z,0.00
2017-07-07T00:30:36.865Z,0.00
2017-07-07T00:31:36.965Z,0.00
2017-07-07T00:32:30.846Z,0.00
2017-07-07T00:33:30.994Z,0.00
2017-07-07T00:34:26.107Z,0.00
2017-07-07T00:35:21.066Z,0.00
2017-07-07T00:36:21.027Z,0.00
2017-07-07T00:37:16.107Z,0.00
2017-07-07T00:38:11.522Z,0.00
2017-07-07T00:39:11.268Z,0.00
2017-07-07T00:40:06.143Z,0.00
2017-07-07T00:41:01.798Z,0.00
2017-07-07T00:42:07.799Z,0.00
2017-07-07T00:43:01.450Z,0.00
2017-07-07T00:44:01.322Z,0.00
2017-07-07T00:44:56.545Z,0.00
2017-07-07T00:45:56.413Z,0.00
2017-07-07T00:46:56.987Z,0.00
2017-07-07T00:48:03.625Z,0.00
2017-07-07T00:49:03.570Z,0.00
2017-07-07T00:50:09.613Z,0.00
2017-07-07T00:51:04.655Z,0.00
2017-07-07T00:52:04.647Z,0.00
2017-07-07T00:52:59.908Z,0.00
2017-07-07T00:53:54.784Z,0.00
2017-07-07T00:54:54.783Z,0.00
2017-07-07T00:55:49.756Z,0.00
2017-07-07T00:56:44.822Z,0.00
2017-07-07T00:57:46.055Z,0.00
2017-07-07T00:58:47.053Z,0.00
2017-07-07T00:59:42.506Z,0.00
2017-07-07T01:00:42.280Z,0.00
2017-07-07T01:01:42.019Z,0.00
2017-07-07T01:02:42.701Z,0.00
2017-07-07T01:03:37.205Z,0.00
2017-07-07T01:04:32.788Z,0.00
2017-07-07T01:05:32.256Z,0.00
2017-07-07T01:06:27.294Z,0.00
2017-07-07T01:07:22.879Z,0.00
2017-07-07T01:08:22.323Z,0.00
2017-07-07T01:09:17.369Z,0.00
2017-07-07T01:10:17.389Z,0.00
2017-07-07T01:11:12.867Z,0.00
2017-07-07T01:12:06.421Z,0.00
2017-07-07T01:13:07.588Z,0.00
2017-07-07T01:13:56.726Z,0.00
2017-07-07T01:14:51.584Z,0.00
2017-07-07T01:15:45.662Z,0.00
2017-07-07T01:16:34.177Z,0.00
2017-07-07T01:17:21.753Z,0.00
2017-07-07T01:18:10.969Z,0.00
2017-07-07T01:19:05.855Z,0.00
2017-07-07T01:19:54.302Z,0.00
2017-07-07T01:20:43.416Z,0.00
2017-07-07T01:21:30.905Z,0.00
2017-07-07T01:22:19.897Z,0.00
2017-07-07T01:23:15.070Z,0.00
2017-07-07T01:24:03.150Z,0.00
2017-07-07T01:24:52.140Z,0.00
2017-07-07T01:25:47.157Z,0.00
2017-07-07T01:26:35.200Z,0.00
2017-07-07T01:27:24.682Z,0.00
2017-07-07T01:28:12.627Z,0.00
2017-07-07T01:29:06.874Z,0.00
2017-07-07T01:30:06.388Z,0.00
2017-07-07T01:31:06.375Z,0.00
2017-07-07T01:32:01.726Z,0.00
2017-07-07T01:32:55.582Z,0.00
2017-07-07T01:33:55.411Z,0.00
2017-07-07T01:34:50.669Z,0.00
2017-07-07T01:35:39.691Z,0.00
2017-07-07T01:36:27.709Z,0.00
2017-07-07T01:37:15.702Z,0.00
2017-07-07T01:38:15.828Z,0.00
2017-07-07T01:39:10.164Z,0.00
2017-07-07T01:40:09.742Z,0.00
2017-07-07T01:41:04.878Z,0.00
2017-07-07T01:41:59.880Z,0.00
2017-07-07T01:43:00.919Z,0.00
2017-07-07T01:44:00.961Z,0.00
2017-07-07T01:44:50.018Z,0.00
2017-07-07T01:45:39.041Z,0.00
2017-07-07T01:46:33.779Z,0.00
2017-07-07T01:47:28.125Z,0.00
2017-07-07T01:48:22.129Z,0.00
2017-07-07T01:49:17.767Z,0.00
2017-07-07T01:50:11.229Z,0.00
2017-07-07T01:51:06.280Z,0.00
2017-07-07T01:52:00.539Z,0.00
2017-07-07T01:53:06.365Z,0.00
2017-07-07T01:54:06.355Z,0.00
2017-07-07T01:55:00.441Z,0.00
2017-07-07T01:56:01.411Z,0.00
2017-07-07T01:57:01.886Z,0.00
2017-07-07T01:57:56.612Z,0.00
2017-07-07T01:58:56.638Z,0.00
2017-07-07T01:59:50.777Z,0.00
2017-07-07T02:00:50.725Z,0.00
2017-07-07T02:01:45.104Z,0.00
2017-07-07T02:02:39.811Z,0.00
2017-07-07T02:03:39.792Z,0.00
2017-07-07T02:04:34.709Z,0.00
2017-07-07T02:05:28.946Z,0.00
2017-07-07T02:06:22.966Z,0.00
2017-07-07T02:07:18.027Z,0.00
2017-07-07T02:08:12.911Z,0.00
2017-07-07T02:09:08.054Z,0.00
2017-07-07T02:09:57.098Z,0.00
2017-07-07T02:10:57.212Z,0.00
2017-07-07T02:11:46.287Z,0.00
2017-07-07T02:12:35.298Z,0.00
2017-07-07T02:13:23.180Z,0.00
2017-07-07T02:14:12.652Z,0.00
2017-07-07T02:15:00.374Z,0.00
2017-07-07T02:15:48.432Z,0.00
2017-07-07T02:16:36.457Z,0.00
2017-07-07T02:17:25.933Z,0.00
2017-07-07T02:18:13.530Z,0.00
2017-07-07T02:19:08.247Z,0.00
2017-07-07T02:19:55.601Z,0.00
2017-07-07T02:20:55.681Z,0.00
2017-07-07T02:21:43.713Z,0.00
2017-07-07T02:22:32.825Z,0.00
2017-07-07T02:23:21.775Z,0.00
2017-07-07T02:24:09.849Z,0.00
2017-07-07T02:25:03.813Z,0.00
2017-07-07T02:25:57.913Z,0.00
2017-07-07T02:26:47.007Z,0.00
2017-07-07T02:27:36.021Z,0.00
2017-07-07T02:28:30.662Z,0.00
2017-07-07T02:29:25.076Z,0.00
2017-07-07T02:30:26.077Z,0.00
2017-07-07T02:31:26.299Z,0.00
2017-07-07T02:32:26.388Z,0.00
2017-07-07T02:33:20.294Z,0.00
2017-07-07T02:34:20.280Z,0.00
2017-07-07T02:35:20.364Z,0.00
2017-07-07T02:36:20.304Z,0.00
2017-07-07T02:37:14.381Z,0.00
2017-07-07T02:38:14.367Z,0.00
2017-07-07T02:39:14.506Z,0.00
2017-07-07T02:40:08.537Z,0.00
2017-07-07T02:41:08.483Z,0.00
2017-07-07T02:42:04.100Z,0.00
2017-07-07T02:42:58.634Z,0.00
2017-07-07T02:43:58.622Z,0.00
2017-07-07T02:44:53.689Z,0.00
2017-07-07T02:45:53.792Z,0.00
2017-07-07T02:46:53.763Z,0.00
2017-07-07T02:47:53.787Z,0.00
2017-07-07T02:48:47.783Z,0.00
2017-07-07T02:49:35.987Z,0.00
2017-07-07T02:50:23.948Z,0.00
2017-07-07T02:51:11.950Z,0.00
2017-07-07T02:52:06.059Z,0.00
2017-07-07T02:52:54.992Z,0.00
2017-07-07T02:53:49.106Z,0.00
2017-07-07T02:54:44.096Z,0.00
2017-07-07T02:55:44.187Z,0.00
2017-07-07T02:56:44.253Z,0.00
2017-07-07T02:57:38.282Z,0.00
2017-07-07T02:58:26.456Z,0.00
2017-07-07T02:59:14.409Z,0.00
2017-07-07T03:00:02.412Z,0.00
2017-07-07T03:00:50.593Z,0.00
2017-07-07T03:01:44.531Z,0.00
2017-07-07T03:02:39.491Z,0.00
2017-07-07T03:03:34.612Z,0.00
2017-07-07T03:04:35.603Z,0.00
2017-07-07T03:05:35.516Z,0.00
2017-07-07T03:06:35.706Z,0.00
2017-07-07T03:07:30.762Z,0.00
2017-07-07T03:08:24.668Z,0.00
2017-07-07T03:09:24.818Z,0.00
2017-07-07T03:10:19.893Z,0.00
2017-07-07T03:11:14.843Z,0.00
2017-07-07T03:12:15.472Z,0.00
2017-07-07T03:13:09.944Z,0.00
2017-07-07T03:14:05.167Z,0.00
2017-07-07T03:15:05.039Z,0.00
2017-07-07T03:16:00.017Z,0.00
2017-07-07T03:16:55.130Z,0.00
2017-07-07T03:17:49.242Z,0.00
2017-07-07T03:18:49.192Z,0.00
2017-07-07T03:19:44.230Z,0.00
2017-07-07T03:20:39.205Z,0.00
2017-07-07T03:21:39.404Z,0.00
2017-07-07T03:22:34.745Z,0.00
2017-07-07T03:23:34.501Z,0.00
2017-07-07T03:24:35.392Z,0.00
2017-07-07T03:25:35.433Z,0.00
2017-07-07T03:26:35.450Z,0.00
2017-07-07T03:27:35.656Z,0.00
2017-07-07T03:28:35.879Z,0.00
2017-07-07T03:29:35.567Z,0.00
2017-07-07T03:30:41.589Z,0.00
2017-07-07T03:31:36.659Z,0.00
2017-07-07T03:32:30.975Z,0.00
2017-07-07T03:33:31.293Z,0.00
2017-07-07T03:34:25.842Z,0.00
2017-07-07T03:35:20.809Z,0.00
2017-07-07T03:36:21.845Z,0.00
2017-07-07T03:37:27.969Z,0.00
2017-07-07T03:38:22.155Z,0.00
2017-07-07T03:39:28.047Z,0.00
2017-07-07T03:40:22.113Z,0.00
2017-07-07T03:41:23.046Z,0.00
2017-07-07T03:42:18.032Z,0.00
2017-07-07T03:43:12.102Z,0.00
2017-07-07T03:44:13.169Z,0.00
2017-07-07T03:45:13.349Z,0.00
2017-07-07T03:46:07.245Z,0.00
2017-07-07T03:47:07.336Z,0.00
2017-07-07T03:48:07.598Z,0.00
2017-07-07T03:49:07.376Z,0.00
2017-07-07T03:49:56.474Z,0.00
2017-07-07T03:50:57.515Z,0.00
2017-07-07T03:51:51.622Z,0.00
2017-07-07T03:52:40.614Z,0.00
2017-07-07T03:53:34.544Z,0.00
2017-07-07T03:54:30.036Z,0.00
2017-07-07T03:55:23.559Z,0.00
2017-07-07T03:56:17.690Z,0.00
2017-07-07T03:57:12.763Z,0.00
2017-07-07T03:58:06.740Z,0.01
2017-07-07T03:59:01.734Z,0.01
2017-07-07T04:00:01.904Z,0.01
2017-07-07T04:00:57.021Z,0.01
2017-07-07T04:01:52.407Z,0.01
2017-07-07T04:02:41.070Z,0.01
2017-07-07T04:03:30.147Z,0.01
2017-07-07T04:04:18.002Z,0.01
2017-07-07T04:05:07.103Z,0.02
2017-07-07T04:05:55.266Z,0.02
2017-07-07T04:06:43.790Z,0.02
2017-07-07T04:07:32.724Z,0.02
2017-07-07T04:08:26.567Z,0.02
2017-07-07T04:09:21.293Z,0.02
2017-07-07T04:10:21.414Z,0.02
2017-07-07T04:11:10.414Z,0.02
2017-07-07T04:12:00.111Z,0.02
2017-07-07T04:12:59.509Z,0.02
2017-07-07T04:13:54.554Z,0.02
2017-07-07T04:14:48.621Z,0.02
2017-07-07T04:15:43.567Z,0.03
2017-07-07T04:16:32.690Z,0.03
2017-07-07T04:17:27.695Z,0.03
2017-07-07T04:18:22.916Z,0.03
2017-07-07T04:19:12.356Z,0.03
2017-07-07T04:19:59.945Z,0.03
2017-07-07T04:20:53.920Z,0.04
2017-07-07T04:21:48.018Z,0.04
2017-07-07T04:22:42.016Z,0.04
2017-07-07T04:23:36.977Z,0.04
2017-07-07T04:24:31.598Z,0.05
2017-07-07T04:25:25.049Z,0.05
2017-07-07T04:26:19.132Z,0.05
2017-07-07T04:27:08.260Z,0.05
2017-07-07T04:27:56.195Z,0.05
2017-07-07T04:28:45.488Z,0.06
2017-07-07T04:29:33.364Z,0.06
2017-07-07T04:30:27.400Z,0.06
2017-07-07T04:31:27.460Z,0.07
2017-07-07T04:32:22.341Z,0.07
2017-07-07T04:33:16.473Z,0.07
2017-07-07T04:34:11.846Z,0.07
2017-07-07T04:35:05.575Z,0.07
2017-07-07T04:35:54.664Z,0.07
2017-07-07T04:36:43.677Z,0.08
2017-07-07T04:37:31.867Z,0.08
2017-07-07T04:38:20.699Z,0.08
2017-07-07T04:39:08.930Z,0.08
2017-07-07T04:39:56.920Z,0.08
2017-07-07T04:40:46.078Z,0.08
2017-07-07T04:41:33.946Z,0.10
2017-07-07T04:42:23.047Z,0.15
2017-07-07T04:43:17.042Z,0.20
2017-07-07T04:44:12.335Z,0.26
2017-07-07T04:45:00.310Z,0.25
2017-07-07T04:45:48.137Z,0.11
2017-07-07T04:46:37.191Z,0.17
2017-07-07T04:47:25.801Z,0.23
2017-07-07T04:48:13.387Z,0.30
2017-07-07T04:49:02.371Z,0.38
2017-07-07T04:49:50.424Z,0.35
2017-07-07T04:50:38.541Z,0.26
2017-07-07T04:51:27.894Z,0.33
2017-07-07T04:52:16.150Z,0.43
2017-07-07T04:53:05.123Z,0.44
2017-07-07T04:53:53.166Z,0.44
2017-07-07T04:54:41.073Z,0.48
2017-07-07T04:55:30.299Z,0.50
2017-07-07T04:56:18.283Z,0.51
2017-07-07T04:57:06.456Z,0.32
2017-07-07T04:57:55.491Z,0.33
2017-07-07T04:58:43.398Z,0.49
2017-07-07T04:59:32.437Z,0.43
2017-07-07T05:00:20.501Z,0.22
2017-07-07T05:01:08.566Z,0.19
2017-07-07T05:01:57.701Z,0.13
2017-07-07T05:02:45.701Z,0.13
2017-07-07T05:03:33.730Z,0.17
2017-07-07T05:04:21.872Z,0.23
2017-07-07T05:05:15.982Z,0.26
2017-07-07T05:06:05.013Z,0.24
2017-07-07T05:06:52.956Z,0.17
2017-07-07T05:07:41.986Z,0.15
2017-07-07T05:08:30.005Z,0.15
2017-07-07T05:09:19.000Z,0.16
2017-07-07T05:10:07.110Z,0.19
2017-07-07T05:11:02.086Z,0.28
2017-07-07T05:12:02.406Z,0.35
2017-07-07T05:12:50.234Z,0.31
2017-07-07T05:13:38.805Z,0.27
2017-07-07T05:14:28.511Z,0.23
2017-07-07T05:15:15.916Z,0.25
2017-07-07T05:16:05.031Z,0.27
2017-07-07T05:16:54.267Z,0.28
2017-07-07T05:17:43.171Z,0.21
2017-07-07T05:18:38.746Z,0.27
2017-07-07T05:19:38.165Z,0.24
2017-07-07T05:20:26.880Z,0.21
2017-07-07T05:21:15.379Z,0.19
2017-07-07T05:22:16.489Z,0.15
2017-07-07T05:23:04.387Z,0.15
2017-07-07T05:23:58.524Z,0.16
2017-07-07T05:24:53.083Z,0.19
2017-07-07T05:25:41.033Z,0.20
2017-07-07T05:26:40.657Z,0.27
2017-07-07T05:27:29.698Z,0.24
2017-07-07T05:28:24.048Z,0.27
2017-07-07T05:29:17.857Z,0.28
2017-07-07T05:30:07.288Z,0.26
2017-07-07T05:31:01.938Z,0.21
2017-07-07T05:31:56.071Z,0.25
2017-07-07T05:32:44.303Z,0.21
2017-07-07T05:33:33.726Z,0.19
2017-07-07T05:34:28.236Z,0.19
2017-07-07T05:35:22.764Z,0.19
2017-07-07T05:36:11.368Z,0.19
2017-07-07T05:37:11.878Z,0.22
2017-07-07T05:38:05.608Z,0.18
2017-07-07T05:38:54.396Z,0.20
2017-07-07T05:39:54.767Z,0.16
2017-07-07T05:40:55.086Z,0.16
2017-07-07T05:41:50.011Z,0.17
2017-07-07T05:42:50.117Z,0.18
2017-07-07T05:43:50.239Z,0.17
2017-07-07T05:44:44.196Z,0.21
2017-07-07T05:45:44.230Z,0.25
2017-07-07T05:46:39.346Z,0.21
2017-07-07T05:47:34.285Z,0.20
2017-07-07T05:48:23.320Z,0.20
2017-07-07T05:49:11.274Z,0.37
2017-07-07T05:49:59.514Z,0.21
2017-07-07T05:50:47.608Z,0.19
2017-07-07T05:51:36.547Z,0.19
2017-07-07T05:52:24.672Z,0.19
2017-07-07T05:53:12.993Z,0.22
2017-07-07T05:54:01.480Z,0.28
2017-07-07T05:54:55.913Z,0.22
2017-07-07T05:55:50.369Z,0.29
2017-07-07T05:56:39.411Z,0.21
2017-07-07T05:57:27.632Z,0.36
2017-07-07T05:58:15.520Z,0.44
2017-07-07T05:59:15.851Z,0.29
2017-07-07T06:00:17.509Z,0.34
2017-07-07T06:01:22.659Z,0.36
2017-07-07T06:02:24.043Z,0.28
2017-07-07T06:03:23.938Z,0.33
2017-07-07T06:04:24.329Z,0.40
2017-07-07T06:05:30.359Z,0.45
2017-07-07T06:06:30.604Z,0.44
2017-07-07T06:07:24.677Z,0.45
2017-07-07T06:08:19.224Z,0.44
2017-07-07T06:09:19.899Z,0.45
2017-07-07T06:10:13.882Z,0.41
2017-07-07T06:11:08.634Z,0.41
2017-07-07T06:12:08.962Z,0.45
2017-07-07T06:13:02.550Z,0.46
2017-07-07T06:13:58.033Z,0.46
2017-07-07T06:14:57.730Z,0.46
2017-07-07T06:15:52.285Z,0.45
2017-07-07T06:16:47.227Z,0.45
2017-07-07T06:17:47.360Z,0.48
2017-07-07T06:18:47.636Z,0.49
2017-07-07T06:19:41.593Z,0.49
2017-07-07T06:20:41.763Z,0.49
2017-07-07T06:21:42.843Z,0.50
2017-07-07T06:22:37.878Z,0.33
2017-07-07T06:23:32.893Z,0.33
2017-07-07T06:24:32.930Z,0.51
2017-07-07T06:25:33.089Z,0.44
2017-07-07T06:26:22.183Z,0.44
2017-07-07T06:27:22.183Z,0.53
2017-07-07T06:28:22.232Z,0.54
2017-07-07T06:29:10.360Z,0.53
2017-07-07T06:29:59.380Z,0.53
2017-07-07T06:30:48.515Z,0.53
2017-07-07T06:31:36.520Z,0.53
2017-07-07T06:32:31.689Z,0.53
2017-07-07T06:33:25.946Z,0.53
2017-07-07T06:34:20.913Z,0.53
2017-07-07T06:35:09.910Z,0.53
2017-07-07T06:35:57.953Z,0.53
2017-07-07T06:36:52.048Z,0.53
2017-07-07T06:37:41.087Z,0.53
2017-07-07T06:38:29.235Z,0.53
2017-07-07T06:39:17.259Z,0.54
2017-07-07T06:40:11.513Z,0.54
2017-07-07T06:41:05.457Z,0.53
2017-07-07T06:41:59.535Z,0.53
2017-07-07T06:42:47.513Z,0.53
2017-07-07T06:43:42.617Z,0.53
2017-07-07T06:44:30.843Z,0.54
2017-07-07T06:45:25.907Z,0.55
2017-07-07T06:46:14.958Z,0.55
2017-07-07T06:47:09.041Z,0.57
2017-07-07T06:48:04.012Z,0.58
2017-07-07T06:48:53.201Z,0.60
2017-07-07T06:49:48.228Z,0.62
2017-07-07T06:50:48.277Z,0.62
2017-07-07T06:51:48.412Z,0.64
2017-07-07T06:52:42.416Z,0.63
2017-07-07T06:53:31.557Z,0.63
2017-07-07T06:54:25.699Z,0.63
2017-07-07T06:55:20.654Z,0.62
2017-07-07T06:56:15.772Z,0.62
2017-07-07T06:57:10.000Z,0.61
2017-07-07T06:58:03.912Z,0.62
2017-07-07T06:58:58.163Z,0.61
2017-07-07T06:59:58.161Z,0.61
2017-07-07T07:00:53.160Z,0.53
2017-07-07T07:01:48.319Z,0.42
2017-07-07T07:02:36.347Z,0.61
2017-07-07T07:03:30.419Z,0.62
2017-07-07T07:04:18.535Z,0.59
2017-07-07T07:05:12.650Z,0.60
2017-07-07T07:06:07.649Z,0.63
2017-07-07T07:07:01.968Z,0.63
2017-07-07T07:07:56.843Z,0.63
2017-07-07T07:08:46.007Z,0.62
2017-07-07T07:09:40.003Z,0.62
2017-07-07T07:10:29.158Z,0.61
2017-07-07T07:11:23.155Z,0.62
2017-07-07T07:12:17.383Z,0.62
2017-07-07T07:13:06.305Z,0.62
2017-07-07T07:14:00.357Z,0.63
2017-07-07T07:14:49.527Z,0.63
2017-07-07T07:15:44.558Z,0.64
2017-07-07T07:16:38.733Z,0.63
2017-07-07T07:17:32.720Z,0.63
2017-07-07T07:18:26.793Z,0.65
2017-07-07T07:19:26.884Z,0.66
2017-07-07T07:20:21.961Z,0.67
2017-07-07T07:21:22.137Z,0.67
2017-07-07T07:22:22.127Z,0.64
2017-07-07T07:23:23.218Z,0.65
2017-07-07T07:24:23.330Z,0.64
2017-07-07T07:25:29.394Z,0.67
2017-07-07T07:26:23.550Z,0.61
2017-07-07T07:27:17.523Z,0.65
2017-07-07T07:28:11.595Z,0.65
2017-07-07T07:28:59.729Z,0.66
2017-07-07T07:29:59.875Z,0.66
2017-07-07T07:30:59.948Z,0.68
2017-07-07T07:31:54.016Z,0.69
2017-07-07T07:32:49.013Z,0.72
2017-07-07T07:33:38.240Z,0.74
2017-07-07T07:34:38.272Z,0.73
2017-07-07T07:35:38.330Z,0.52
2017-07-07T07:36:33.430Z,0.48
2017-07-07T07:37:27.575Z,0.60
2017-07-07T07:38:21.560Z,0.40
2017-07-07T07:39:21.673Z,0.66
2017-07-07T07:40:16.735Z,0.65
2017-07-07T07:41:10.693Z,0.71
2017-07-07T07:41:58.975Z,0.71
2017-07-07T07:42:46.816Z,0.70
2017-07-07T07:43:36.061Z,0.71
2017-07-07T07:44:25.014Z,0.71
2017-07-07T07:45:19.224Z,0.58
2017-07-07T07:46:13.367Z,0.72
2017-07-07T07:47:14.394Z,0.73
2017-07-07T07:48:09.451Z,0.39
2017-07-07T07:48:58.516Z,0.43
2017-07-07T07:49:53.640Z,0.58
2017-07-07T07:50:47.552Z,0.69
2017-07-07T07:51:48.696Z,0.72
2017-07-07T07:52:37.845Z,0.74
2017-07-07T07:53:26.906Z,0.75
2017-07-07T07:54:16.003Z,0.74
2017-07-07T07:55:05.113Z,0.75
2017-07-07T07:55:54.129Z,0.74
2017-07-07T07:56:48.243Z,0.73
2017-07-07T07:57:36.284Z,0.72
2017-07-07T07:58:30.436Z,0.73
2017-07-07T07:59:24.538Z,0.74
2017-07-07T08:00:19.588Z,0.74
2017-07-07T08:01:13.716Z,0.73
2017-07-07T08:02:08.861Z,0.74
2017-07-07T08:02:57.947Z,0.76
2017-07-07T08:03:46.050Z,0.77
2017-07-07T08:04:46.029Z,0.74
2017-07-07T08:05:35.071Z,0.75
2017-07-07T08:06:23.248Z,0.76
2017-07-07T08:07:17.385Z,0.78
2017-07-07T08:08:06.410Z,0.78
2017-07-07T08:08:55.494Z,0.78
2017-07-07T08:09:49.598Z,0.78
2017-07-07T08:10:44.620Z,0.78
2017-07-07T08:11:38.780Z,0.78
2017-07-07T08:12:32.815Z,0.77
2017-07-07T08:13:20.933Z,0.76
2017-07-07T08:14:14.979Z,0.75
2017-07-07T08:15:14.984Z,0.74
2017-07-07T08:16:09.119Z,0.73
2017-07-07T08:17:10.441Z,0.72
2017-07-07T08:18:05.331Z,0.74
2017-07-07T08:18:59.483Z,0.72
2017-07-07T08:19:48.482Z,0.72
2017-07-07T08:20:37.510Z,0.73
2017-07-07T08:21:37.712Z,0.75
2017-07-07T08:22:26.904Z,0.75
2017-07-07T08:23:15.811Z,0.77
2017-07-07T08:24:04.912Z,0.79
2017-07-07T08:24:54.047Z,0.79
2017-07-07T08:25:42.177Z,0.79
2017-07-07T08:26:37.120Z,0.79
2017-07-07T08:27:31.251Z,0.77
2017-07-07T08:28:26.379Z,0.77
2017-07-07T08:29:20.412Z,0.78
2017-07-07T08:30:15.556Z,0.78
2017-07-07T08:31:03.690Z,0.79
2017-07-07T08:31:52.915Z,0.77
2017-07-07T08:32:47.803Z,0.79
2017-07-07T08:33:36.863Z,0.81
2017-07-07T08:34:31.979Z,0.81
2017-07-07T08:35:26.029Z,0.81
2017-07-07T08:36:15.120Z,0.81
2017-07-07T08:37:09.499Z,0.80
2017-07-07T08:37:58.307Z,0.81
2017-07-07T08:38:52.378Z,0.81
2017-07-07T08:39:41.397Z,0.82
2017-07-07T08:40:31.130Z,0.83
2017-07-07T08:41:30.620Z,0.82
2017-07-07T08:42:30.854Z,0.82
2017-07-07T08:43:31.802Z,0.82
2017-07-07T08:44:31.943Z,0.81
2017-07-07T08:45:31.938Z,0.80
2017-07-07T08:46:26.098Z,0.83
2017-07-07T08:47:15.106Z,0.82
2017-07-07T08:48:09.176Z,0.82
2017-07-07T08:49:03.463Z,0.84
2017-07-07T08:49:58.394Z,0.83
2017-07-07T08:50:59.472Z,0.85
2017-07-07T08:51:54.401Z,0.86
2017-07-07T08:52:49.611Z,0.86
2017-07-07T08:53:37.738Z,0.85
2017-07-07T08:54:26.699Z,0.86
2017-07-07T08:55:27.035Z,0.84
2017-07-07T08:56:20.980Z,0.83
2017-07-07T08:57:16.060Z,0.82
2017-07-07T08:58:10.158Z,0.81
2017-07-07T08:59:04.156Z,0.76
2017-07-07T08:59:53.604Z,0.77
2017-07-07T09:00:47.504Z,0.68
2017-07-07T09:01:41.599Z,0.83
2017-07-07T09:02:30.615Z,0.83
2017-07-07T09:03:24.611Z,0.82
2017-07-07T09:04:13.835Z,0.79
2017-07-07T09:05:08.943Z,0.68
2017-07-07T09:06:02.871Z,0.80
2017-07-07T09:06:57.048Z,0.87
2017-07-07T09:07:52.018Z,0.89
2017-07-07T09:08:46.070Z,0.92
2017-07-07T09:09:35.155Z,0.95
2017-07-07T09:10:24.298Z,0.95
2017-07-07T09:11:13.333Z,0.93
2017-07-07T09:12:14.534Z,0.99
2017-07-07T09:13:02.572Z,0.93
2017-07-07T09:13:52.100Z,0.98
2017-07-07T09:14:47.047Z,0.56
2017-07-07T09:15:35.890Z,1.00
2017-07-07T09:16:36.790Z,0.83
2017-07-07T09:17:37.031Z,0.90
2017-07-07T09:18:32.101Z,1.10
2017-07-07T09:19:21.124Z,0.80
2017-07-07T09:20:15.263Z,0.67
2017-07-07T09:21:04.224Z,0.83
2017-07-07T09:21:58.359Z,0.63
2017-07-07T09:22:52.535Z,0.64
2017-07-07T09:23:46.683Z,0.70
2017-07-07T09:24:41.687Z,0.58
2017-07-07T09:25:35.830Z,0.60
2017-07-07T09:26:30.873Z,0.56
2017-07-07T09:27:19.941Z,0.56
2017-07-07T09:28:14.086Z,0.48
2017-07-07T09:29:14.092Z,0.43
2017-07-07T09:30:09.177Z,0.60
2017-07-07T09:31:03.458Z,0.44
2017-07-07T09:31:58.385Z,0.39
2017-07-07T09:32:53.477Z,0.81
2017-07-07T09:33:41.542Z,0.89
2017-07-07T09:34:41.585Z,0.74
2017-07-07T09:35:41.684Z,0.63
2017-07-07T09:36:36.795Z,0.61
2017-07-07T09:37:31.061Z,0.80
2017-07-07T09:38:20.045Z,0.71
2017-07-07T09:39:14.130Z,0.78
2017-07-07T09:40:03.153Z,0.78
2017-07-07T09:40:57.244Z,0.73
2017-07-07T09:41:52.263Z,0.59
2017-07-07T09:42:46.428Z,0.49
2017-07-07T09:43:40.494Z,0.72
2017-07-07T09:44:34.473Z,0.94
2017-07-07T09:45:29.699Z,0.97
2017-07-07T09:46:17.836Z,0.91
2017-07-07T09:47:12.883Z,0.83
2017-07-07T09:48:13.225Z,0.91
2017-07-07T09:49:01.980Z,0.84
2017-07-07T09:49:57.066Z,0.52
2017-07-07T09:50:58.122Z,0.72
2017-07-07T09:51:58.205Z,0.75
2017-07-07T09:52:58.249Z,0.86
2017-07-07T09:53:52.380Z,0.99
2017-07-07T09:54:40.426Z,1.08
2017-07-07T09:55:34.508Z,1.07
2017-07-07T09:56:29.730Z,1.08
2017-07-07T09:57:18.809Z,1.06
2017-07-07T09:58:12.845Z,0.78
2017-07-07T09:59:00.846Z,0.44
2017-07-07T09:59:55.900Z,0.48
2017-07-07T10:00:56.078Z,0.53
2017-07-07T10:01:56.202Z,0.94
2017-07-07T10:02:56.113Z,1.09
2017-07-07T10:03:56.299Z,0.51
2017-07-07T10:04:51.437Z,0.36
2017-07-07T10:05:40.428Z,0.37
2017-07-07T10:06:29.518Z,0.55
2017-07-07T10:07:18.679Z,0.85
2017-07-07T10:08:12.750Z,0.40
2017-07-07T10:09:06.787Z,0.33
2017-07-07T10:10:00.909Z,0.38
2017-07-07T10:10:49.924Z,0.70
2017-07-07T10:11:43.984Z,0.43
2017-07-07T10:12:39.162Z,0.43
2017-07-07T10:13:33.144Z,0.38
2017-07-07T10:14:33.237Z,1.02
2017-07-07T10:15:22.344Z,1.08
2017-07-07T10:16:22.427Z,1.00
2017-07-07T10:17:22.564Z,1.11
2017-07-07T10:18:17.556Z,0.79
2017-07-07T10:19:11.721Z,0.60
2017-07-07T10:20:05.854Z,0.43
2017-07-07T10:20:53.920Z,0.32
2017-07-07T10:21:42.866Z,0.79
2017-07-07T10:22:37.995Z,1.01
2017-07-07T10:23:33.116Z,0.88
2017-07-07T10:24:22.197Z,1.11
2017-07-07T10:25:16.228Z,1.04
2017-07-07T10:26:05.350Z,1.02
2017-07-07T10:27:05.386Z,0.94
2017-07-07T10:27:59.553Z,1.10
2017-07-07T10:28:53.698Z,1.13
2017-07-07T10:29:47.671Z,1.05
2017-07-07T10:30:36.738Z,0.95
2017-07-07T10:31:25.810Z,0.90
2017-07-07T10:32:20.007Z,0.70
2017-07-07T10:33:15.056Z,0.61
2017-07-07T10:34:10.007Z,0.60
2017-07-07T10:35:04.202Z,0.36
2017-07-07T10:35:59.206Z,0.27
2017-07-07T10:36:54.335Z,0.26
2017-07-07T10:37:49.513Z,0.26
2017-07-07T10:38:49.490Z,0.35
2017-07-07T10:39:49.564Z,0.51
2017-07-07T10:40:38.660Z,0.45
2017-07-07T10:41:27.631Z,0.40
2017-07-07T10:42:16.955Z,0.61
2017-07-07T10:43:05.865Z,0.40
2017-07-07T10:43:59.909Z,0.38
2017-07-07T10:45:00.113Z,0.77
2017-07-07T10:45:54.019Z,1.03
2017-07-07T10:46:49.179Z,0.99
2017-07-07T10:47:44.311Z,0.83
2017-07-07T10:48:33.460Z,0.80
2017-07-07T10:49:34.461Z,0.72
2017-07-07T10:50:22.739Z,0.66
2017-07-07T10:51:11.748Z,0.45
2017-07-07T10:52:05.819Z,0.73
2017-07-07T10:52:53.912Z,0.68
2017-07-07T10:53:42.021Z,0.69
2017-07-07T10:54:36.095Z,0.65
2017-07-07T10:55:36.184Z,0.74
2017-07-07T10:56:30.296Z,0.71
2017-07-07T10:57:30.274Z,0.50
2017-07-07T10:58:30.745Z,0.40
2017-07-07T10:59:30.456Z,0.88
2017-07-07T11:00:30.655Z,0.96
2017-07-07T11:01:24.515Z,1.00
2017-07-07T11:02:13.921Z,1.03
2017-07-07T11:03:02.739Z,1.04
2017-07-07T11:03:56.906Z,0.99
2017-07-07T11:04:51.071Z,0.84
2017-07-07T11:05:45.056Z,0.79
2017-07-07T11:06:40.216Z,0.83
2017-07-07T11:07:40.254Z,0.87
2017-07-07T11:08:29.354Z,0.89
2017-07-07T11:09:18.509Z,0.79
2017-07-07T11:10:12.465Z,0.69
2017-07-07T11:11:06.492Z,0.65
2017-07-07T11:12:00.564Z,0.43
2017-07-07T11:13:00.674Z,0.53
2017-07-07T11:13:54.752Z,0.64
2017-07-07T11:14:55.807Z,0.61
2017-07-07T11:15:44.869Z,0.68
2017-07-07T11:16:32.982Z,0.61
2017-07-07T11:17:21.018Z,0.64
2017-07-07T11:18:16.270Z,0.74
2017-07-07T11:19:10.389Z,0.52
2017-07-07T11:20:05.511Z,0.80
2017-07-07T11:20:59.452Z,0.67
2017-07-07T11:21:53.591Z,0.60
2017-07-07T11:22:42.689Z,0.86
2017-07-07T11:23:30.868Z,0.83
2017-07-07T11:24:25.747Z,0.68
2017-07-07T11:25:19.913Z,0.83
2017-07-07T11:26:09.325Z,0.81
2017-07-07T11:27:03.102Z,0.74
2017-07-07T11:27:57.072Z,0.62
2017-07-07T11:28:46.182Z,0.71
2017-07-07T11:29:34.228Z,0.58
2017-07-07T11:30:23.322Z,0.61
2017-07-07T11:31:17.482Z,0.96
2017-07-07T11:32:11.559Z,0.64
2017-07-07T11:33:06.589Z,0.47
2017-07-07T11:33:55.786Z,0.64
2017-07-07T11:34:50.879Z,1.07
2017-07-07T11:35:44.957Z,1.09
2017-07-07T11:36:40.010Z,1.09
2017-07-07T11:37:29.189Z,0.96
2017-07-07T11:38:24.254Z,0.51
2017-07-07T11:39:18.242Z,0.83
2017-07-07T11:40:06.286Z,1.07
2017-07-07T11:41:00.429Z,0.88
2017-07-07T11:41:54.615Z,0.95
2017-07-07T11:42:49.651Z,0.57
2017-07-07T11:43:38.569Z,1.06
2017-07-07T11:44:32.741Z,1.06
2017-07-07T11:45:26.752Z,0.99
2017-07-07T11:46:20.937Z,0.57
2017-07-07T11:47:10.048Z,0.96
2017-07-07T11:47:58.099Z,0.84
2017-07-07T11:48:52.189Z,0.88
2017-07-07T11:49:41.177Z,0.85
2017-07-07T11:50:36.328Z,0.34
2017-07-07T11:51:30.423Z,0.33
2017-07-07T11:52:30.463Z,0.35
2017-07-07T11:53:25.683Z,0.37
2017-07-07T11:54:19.617Z,0.96
2017-07-07T11:55:14.778Z,1.02
2017-07-07T11:56:08.896Z,0.97
2017-07-07T11:57:08.905Z,0.40
2017-07-07T11:58:03.055Z,0.36
2017-07-07T11:59:03.168Z,0.36
2017-07-07T11:59:51.266Z,0.38